createdAt,value
2023-05-19T00:00:37.489Z,4.13
2023-05-19T00:03:05.759Z,4.05
2023-05-19T00:05:34.531Z,4.18
2023-05-19T00:08:03.253Z,3.78
2023-05-19T00:10:33.301Z,4.57
2023-05-19T00:13:01.370Z,4.13
2023-05-19T00:15:29.256Z,3.72
2023-05-19T00:17:57.158Z,3.87
2023-05-19T00:20:24.922Z,4.60
2023-05-19T00:22:52.531Z,3.92
2023-05-19T00:25:20.456Z,4.30
2023-05-19T00:27:47.940Z,4.18
2023-05-19T00:30:15.829Z,3.95
2023-05-19T00:32:43.834Z,3.92
2023-05-19T00:35:11.724Z,3.90
2023-05-19T00:37:39.280Z,3.77
2023-05-19T00:40:08.100Z,4.22
2023-05-19T00:42:38.972Z,4.18
2023-05-19T00:45:07.279Z,4.45
2023-05-19T00:47:35.097Z,4.07
2023-05-19T00:50:02.861Z,3.80
2023-05-19T00:52:30.829Z,3.35
2023-05-19T00:54:58.327Z,3.15
2023-05-19T00:57:27.173Z,3.08
2023-05-19T00:59:56.523Z,2.83
2023-05-19T01:02:24.145Z,2.80
2023-05-19T01:04:51.942Z,2.37
2023-05-19T01:07:20.038Z,2.70
2023-05-19T01:09:47.614Z,2.58
2023-05-19T01:12:16.140Z,2.30
2023-05-19T01:14:44.322Z,2.20
2023-05-19T01:17:20.720Z,2.80
2023-05-19T01:20:11.074Z,2.35
2023-05-19T01:23:09.370Z,2.42
2023-05-19T01:25:46.149Z,2.55
2023-05-19T01:28:32.203Z,2.50
2023-05-19T01:31:01.176Z,2.10
2023-05-19T01:33:30.202Z,2.10
2023-05-19T01:35:59.452Z,2.50
2023-05-19T01:38:28.556Z,2.25
2023-05-19T01:40:56.980Z,2.50
2023-05-19T01:43:26.100Z,2.50
2023-05-19T01:45:55.188Z,2.40
2023-05-19T01:48:23.182Z,2.10
2023-05-19T01:50:51.190Z,2.47
2023-05-19T01:53:19.247Z,2.33
2023-05-19T01:55:50.880Z,2.30
2023-05-19T01:58:45.288Z,2.20
2023-05-19T02:01:34.381Z,2.45
2023-05-19T02:04:16.511Z,2.97
2023-05-19T02:07:01.997Z,3.00
2023-05-19T02:09:32.834Z,2.45
2023-05-19T02:12:06.468Z,2.85
2023-05-19T02:14:40.223Z,3.15
2023-05-19T02:17:08.662Z,2.80
2023-05-19T02:19:39.662Z,4.37
2023-05-19T02:22:07.472Z,3.20
2023-05-19T02:24:35.007Z,3.33
2023-05-19T02:27:02.708Z,3.30
2023-05-19T02:29:30.498Z,3.40
2023-05-19T02:31:58.862Z,3.40
2023-05-19T02:34:26.766Z,3.45
2023-05-19T02:36:54.577Z,3.35
2023-05-19T02:39:23.445Z,3.50
2023-05-19T02:41:50.990Z,3.10
2023-05-19T02:44:18.848Z,3.50
2023-05-19T02:46:46.508Z,3.67
2023-05-19T02:49:15.016Z,3.80
2023-05-19T02:51:42.828Z,3.67
2023-05-19T02:54:10.761Z,4.87
2023-05-19T02:56:38.300Z,4.37
2023-05-19T02:59:06.378Z,4.70
2023-05-19T03:01:34.104Z,4.55
2023-05-19T03:04:01.966Z,4.10
2023-05-19T03:06:32.430Z,4.00
2023-05-19T03:09:00.063Z,4.43
2023-05-19T03:11:27.579Z,3.67
2023-05-19T03:13:55.510Z,4.03
2023-05-19T03:16:23.118Z,4.68
2023-05-19T03:18:51.169Z,4.65
2023-05-19T03:21:19.061Z,5.03
2023-05-19T03:23:47.382Z,4.50
2023-05-19T03:26:14.952Z,4.68
2023-05-19T03:28:42.946Z,4.22
2023-05-19T03:31:10.588Z,4.62
2023-05-19T03:33:38.570Z,4.63
2023-05-19T03:36:06.934Z,4.00
2023-05-19T03:38:35.025Z,4.50
2023-05-19T03:41:02.617Z,4.00
2023-05-19T03:43:31.673Z,4.28
2023-05-19T03:45:59.436Z,4.50
2023-05-19T03:48:28.534Z,4.62
2023-05-19T03:51:04.441Z,4.57
2023-05-19T03:53:32.015Z,4.90
2023-05-19T03:56:00.666Z,4.62
2023-05-19T03:58:30.280Z,4.63
2023-05-19T04:00:57.831Z,5.55
2023-05-19T04:03:26.319Z,4.70
2023-05-19T04:05:53.941Z,5.22
2023-05-19T04:08:21.527Z,4.95
2023-05-19T04:10:49.296Z,5.17
2023-05-19T04:13:16.917Z,5.57
2023-05-19T04:15:44.563Z,5.68
2023-05-19T04:18:12.513Z,6.07
2023-05-19T04:20:41.096Z,6.60
2023-05-19T04:23:08.837Z,6.50
2023-05-19T04:25:37.485Z,6.10
2023-05-19T04:28:05.069Z,6.12
2023-05-19T04:30:33.484Z,5.95
2023-05-19T04:33:04.860Z,6.40
2023-05-19T04:35:32.862Z,5.70
2023-05-19T04:38:01.688Z,6.00
2023-05-19T04:40:31.503Z,6.12
2023-05-19T04:43:02.266Z,5.90
2023-05-19T04:45:33.030Z,5.47
2023-05-19T04:48:00.891Z,5.87
2023-05-19T04:50:31.007Z,6.75
2023-05-19T04:52:59.380Z,6.43
2023-05-19T04:55:27.174Z,6.62
2023-05-19T04:57:54.860Z,6.32
2023-05-19T05:00:23.112Z,6.53
2023-05-19T05:02:51.646Z,6.22
2023-05-19T05:05:19.560Z,6.00
2023-05-19T05:07:47.770Z,6.78
2023-05-19T05:10:15.475Z,6.22
2023-05-19T05:12:43.311Z,6.77
2023-05-19T05:15:11.748Z,6.32
2023-05-19T05:17:39.924Z,6.03
2023-05-19T05:20:08.113Z,6.53
2023-05-19T05:22:38.651Z,7.07
2023-05-19T05:25:07.209Z,6.80
2023-05-19T05:27:34.913Z,6.82
2023-05-19T05:30:04.653Z,7.07
2023-05-19T05:32:32.859Z,7.10
2023-05-19T05:35:00.977Z,7.80
2023-05-19T05:37:28.940Z,7.37
2023-05-19T05:39:56.493Z,7.75
2023-05-19T05:42:24.845Z,8.18
2023-05-19T05:44:52.948Z,8.05
2023-05-19T05:47:20.951Z,8.52
2023-05-19T05:49:48.796Z,8.53
2023-05-19T05:52:16.973Z,8.85
2023-05-19T05:54:45.203Z,8.15
2023-05-19T05:57:13.210Z,8.02
2023-05-19T05:59:41.439Z,7.68
2023-05-19T06:02:09.212Z,7.87
2023-05-19T06:04:37.134Z,7.90
2023-05-19T06:07:05.140Z,8.07
2023-05-19T06:09:33.122Z,7.97
2023-05-19T06:12:01.454Z,8.73
2023-05-19T06:14:30.084Z,8.67
2023-05-19T06:17:04.676Z,8.15
2023-05-19T06:19:32.323Z,8.32
2023-05-19T06:21:59.876Z,8.60
2023-05-19T06:24:27.779Z,8.10
2023-05-19T06:26:55.451Z,7.63
2023-05-19T06:29:22.978Z,7.80
2023-05-19T06:31:51.451Z,7.85
2023-05-19T06:34:21.052Z,7.80
2023-05-19T06:36:48.726Z,7.40
2023-05-19T06:39:17.059Z,7.57
2023-05-19T06:41:44.728Z,7.03
2023-05-19T06:44:23.675Z,7.10
2023-05-19T06:46:51.593Z,6.95
2023-05-19T06:49:20.128Z,7.90
2023-05-19T06:51:49.262Z,7.10
2023-05-19T06:54:17.112Z,7.90
2023-05-19T06:56:45.146Z,8.38
2023-05-19T06:59:12.661Z,8.82
2023-05-19T07:01:40.483Z,8.27
2023-05-19T07:04:08.174Z,8.00
2023-05-19T07:06:35.810Z,7.47
2023-05-19T07:09:05.464Z,7.97
2023-05-19T07:11:33.508Z,7.43
2023-05-19T07:14:01.745Z,8.10
2023-05-19T07:16:31.524Z,7.30
2023-05-19T07:19:00.241Z,7.32
2023-05-19T07:21:27.945Z,6.45
2023-05-19T07:23:55.975Z,6.60
2023-05-19T07:26:23.701Z,6.50
2023-05-19T07:28:51.963Z,6.30
2023-05-19T07:31:19.822Z,5.50
2023-05-19T07:33:47.414Z,5.32
2023-05-19T07:36:14.958Z,4.85
2023-05-19T07:38:44.840Z,4.25
2023-05-19T07:41:12.622Z,4.80
2023-05-19T07:43:40.200Z,4.90
2023-05-19T07:46:08.197Z,4.43
2023-05-19T07:48:35.715Z,4.12
2023-05-19T07:51:03.282Z,4.60
2023-05-19T07:53:31.233Z,4.20
2023-05-19T07:55:58.923Z,5.00
2023-05-19T07:58:26.727Z,5.10
2023-05-19T08:00:57.751Z,4.70
2023-05-19T08:03:26.888Z,4.97
2023-05-19T08:05:54.677Z,4.73
2023-05-19T08:08:22.236Z,4.43
2023-05-19T08:10:50.120Z,3.97
2023-05-19T08:13:17.752Z,4.18
2023-05-19T08:15:45.364Z,3.45
2023-05-19T08:18:13.449Z,3.60
2023-05-19T08:20:41.210Z,4.50
2023-05-19T08:23:08.750Z,3.70
2023-05-19T08:25:36.602Z,3.92
2023-05-19T08:28:04.289Z,4.00
2023-05-19T08:30:32.023Z,3.83
2023-05-19T08:33:00.069Z,3.75
2023-05-19T08:35:27.588Z,3.78
2023-05-19T08:37:55.205Z,4.40
2023-05-19T08:40:23.152Z,4.80
2023-05-19T08:42:50.765Z,4.47
2023-05-19T08:45:18.428Z,4.62
2023-05-19T08:47:47.248Z,4.12
2023-05-19T08:50:21.388Z,4.40
2023-05-19T08:52:57.755Z,3.55
2023-05-19T08:55:41.923Z,3.67
2023-05-19T08:58:09.963Z,4.20
2023-05-19T09:00:37.801Z,4.05
2023-05-19T09:03:22.669Z,3.92
2023-05-19T09:05:51.588Z,4.62
2023-05-19T09:08:19.455Z,4.00
2023-05-19T09:10:46.909Z,4.90
2023-05-19T09:13:14.711Z,3.97
2023-05-19T09:15:42.409Z,4.43
2023-05-19T09:18:12.107Z,4.20
2023-05-19T09:20:41.904Z,3.90
2023-05-19T09:23:13.986Z,4.40
2023-05-19T09:25:52.419Z,4.28
2023-05-19T09:28:23.760Z,4.12
2023-05-19T09:31:04.626Z,4.12
2023-05-19T09:33:36.463Z,4.20
2023-05-19T09:36:13.816Z,4.37
2023-05-19T09:38:41.563Z,3.97
2023-05-19T09:41:09.874Z,6.57
2023-05-19T09:43:37.535Z,3.47
2023-05-19T09:46:11.883Z,3.50
2023-05-19T09:48:40.648Z,3.10
2023-05-19T09:51:10.837Z,3.45
2023-05-19T09:53:39.023Z,2.92
2023-05-19T09:56:08.776Z,3.10
2023-05-19T09:58:36.623Z,3.30
2023-05-19T10:01:04.991Z,2.97
2023-05-19T10:03:33.734Z,3.30
2023-05-19T10:06:01.997Z,3.87
2023-05-19T10:08:30.835Z,2.97
2023-05-19T10:10:59.321Z,3.20
2023-05-19T10:13:27.252Z,3.78
2023-05-19T10:15:59.285Z,3.03
2023-05-19T10:18:29.717Z,2.78
2023-05-19T10:20:58.209Z,3.12
2023-05-19T10:23:26.579Z,3.23
2023-05-19T10:25:56.804Z,2.80
2023-05-19T10:28:28.300Z,2.67
2023-05-19T10:30:59.043Z,3.03
2023-05-19T10:33:52.360Z,2.97
2023-05-19T10:36:46.579Z,2.70
2023-05-19T10:39:37.141Z,3.10
2023-05-19T10:42:15.778Z,2.45
2023-05-19T10:45:03.349Z,2.47
2023-05-19T10:47:32.524Z,2.90
2023-05-19T10:50:01.118Z,2.63
2023-05-19T10:52:30.981Z,3.05
2023-05-19T10:54:59.023Z,2.62
2023-05-19T10:57:28.164Z,2.75
2023-05-19T10:59:57.215Z,2.80
2023-05-19T11:02:42.337Z,3.50
2023-05-19T11:05:15.073Z,2.75
2023-05-19T11:07:44.842Z,3.03
2023-05-19T11:10:12.805Z,2.62
2023-05-19T11:12:42.979Z,2.83
2023-05-19T11:15:14.764Z,2.23
2023-05-19T11:17:45.738Z,2.97
2023-05-19T11:20:22.994Z,2.95
2023-05-19T11:23:06.141Z,2.97
2023-05-19T11:25:43.865Z,2.70
2023-05-19T11:28:14.613Z,2.60
2023-05-19T11:30:46.038Z,2.80
2023-05-19T11:33:14.192Z,2.17
2023-05-19T11:35:42.813Z,2.70
2023-05-19T11:38:11.288Z,2.50
2023-05-19T11:40:39.381Z,2.93
2023-05-19T11:43:07.633Z,2.70
2023-05-19T11:45:35.842Z,2.58
2023-05-19T11:48:03.926Z,2.60
2023-05-19T11:50:32.739Z,2.58
2023-05-19T11:53:01.495Z,2.80
2023-05-19T11:55:30.084Z,2.40
2023-05-19T12:00:30.987Z,2.45
2023-05-19T12:02:58.806Z,2.40
2023-05-19T12:05:28.100Z,2.00
2023-05-19T12:07:55.774Z,3.10
2023-05-19T12:10:25.350Z,2.97
2023-05-19T12:12:53.943Z,2.87
2023-05-19T12:15:22.309Z,2.80
2023-05-19T12:17:56.970Z,3.10
2023-05-19T12:20:25.663Z,2.83
2023-05-19T12:22:55.686Z,2.60
2023-05-19T12:25:23.988Z,2.80
2023-05-19T12:27:56.170Z,2.83
2023-05-19T12:30:31.827Z,2.60
2023-05-19T12:33:00.004Z,3.20
2023-05-19T12:35:29.036Z,2.42
2023-05-19T12:37:57.607Z,2.80
2023-05-19T12:40:26.243Z,2.58
2023-05-19T12:42:59.123Z,3.00
2023-05-19T12:45:30.005Z,2.40
2023-05-19T12:47:57.870Z,2.45
2023-05-19T12:50:35.007Z,2.40
2023-05-19T12:53:03.497Z,2.37
2023-05-19T12:55:31.218Z,3.10
2023-05-19T12:57:58.957Z,2.50
2023-05-19T13:00:32.545Z,2.10
2023-05-19T13:03:00.603Z,2.35
2023-05-19T13:05:30.116Z,2.47
2023-05-19T13:07:59.251Z,2.47
2023-05-19T13:10:27.732Z,2.67
2023-05-19T13:12:56.209Z,2.30
2023-05-19T13:15:26.269Z,2.50
2023-05-19T13:17:54.592Z,2.85
2023-05-19T13:20:22.443Z,3.10
2023-05-19T13:22:50.467Z,2.78
2023-05-19T13:25:18.085Z,2.40
2023-05-19T13:27:46.152Z,2.92
2023-05-19T13:30:14.387Z,2.55
2023-05-19T13:32:42.220Z,2.77
2023-05-19T13:35:10.893Z,2.22
2023-05-19T13:37:39.556Z,2.70
2023-05-19T13:40:07.874Z,2.50
2023-05-19T13:42:35.804Z,2.75
2023-05-19T13:45:04.069Z,2.40
2023-05-19T13:47:31.690Z,2.50
2023-05-19T13:49:59.531Z,2.55
2023-05-19T13:52:28.342Z,2.67
2023-05-19T13:54:57.908Z,3.20
2023-05-19T13:57:26.381Z,2.33
2023-05-19T14:00:02.512Z,2.75
2023-05-19T14:02:39.836Z,2.40
2023-05-19T14:05:08.638Z,2.05
2023-05-19T14:07:36.185Z,2.80
2023-05-19T14:10:05.966Z,2.17
2023-05-19T14:12:45.125Z,2.67
2023-05-19T14:15:22.715Z,2.50
2023-05-19T14:17:50.611Z,2.60
2023-05-19T14:20:18.283Z,2.75
2023-05-19T14:22:45.831Z,2.70
2023-05-19T14:25:13.870Z,2.83
2023-05-19T14:27:41.398Z,2.53
2023-05-19T14:30:09.536Z,2.42
2023-05-19T14:32:37.555Z,2.40
2023-05-19T14:35:06.019Z,2.63
2023-05-19T14:37:33.669Z,2.70
2023-05-19T14:40:01.394Z,2.58
2023-05-19T14:42:28.940Z,2.70
2023-05-19T14:44:56.721Z,2.60
2023-05-19T14:47:26.340Z,2.60
2023-05-19T14:49:54.924Z,2.20
2023-05-19T14:52:22.933Z,2.40
2023-05-19T14:54:50.823Z,2.90
2023-05-19T14:57:18.407Z,2.70
2023-05-19T14:59:45.904Z,2.83
2023-05-19T15:02:13.731Z,2.40
2023-05-19T15:04:41.267Z,2.22
2023-05-19T15:07:10.115Z,2.03
2023-05-19T15:09:38.660Z,2.53
2023-05-19T15:12:06.380Z,2.60
2023-05-19T15:14:33.923Z,2.53
2023-05-19T15:17:01.842Z,2.35
2023-05-19T15:19:29.452Z,2.42
2023-05-19T15:21:57.024Z,2.53
2023-05-19T15:24:24.840Z,2.60
2023-05-19T15:26:52.488Z,2.55
2023-05-19T15:29:20.037Z,2.33
2023-05-19T15:31:51.898Z,2.67
2023-05-19T15:34:20.573Z,2.58
2023-05-19T15:36:48.522Z,2.73
2023-05-19T15:39:16.096Z,2.60
2023-05-19T15:41:43.726Z,2.37
2023-05-19T15:44:11.692Z,2.42
2023-05-19T15:46:39.311Z,2.28
2023-05-19T15:49:06.911Z,2.30
2023-05-19T15:51:35.049Z,2.40
2023-05-19T15:54:02.708Z,2.25
2023-05-19T15:56:30.509Z,2.65
2023-05-19T15:58:58.414Z,2.22
2023-05-19T16:01:26.525Z,2.67
2023-05-19T16:03:54.872Z,2.50
2023-05-19T16:06:22.556Z,2.42
2023-05-19T16:08:50.152Z,2.50
2023-05-19T16:11:18.412Z,2.70
2023-05-19T16:13:46.439Z,2.90
2023-05-19T16:16:14.085Z,2.53
2023-05-19T16:18:44.157Z,2.22
2023-05-19T16:21:11.807Z,2.50
2023-05-19T16:23:39.394Z,2.65
2023-05-19T16:26:07.169Z,2.23
2023-05-19T16:28:34.719Z,2.60
2023-05-19T16:31:02.300Z,2.17
2023-05-19T16:33:30.184Z,2.67
2023-05-19T16:35:59.819Z,2.80
2023-05-19T16:38:27.648Z,2.67
2023-05-19T16:40:55.710Z,2.90
2023-05-19T16:43:23.209Z,2.40
2023-05-19T16:45:50.772Z,2.83
2023-05-19T16:48:18.695Z,2.35
2023-05-19T16:50:48.773Z,2.47
2023-05-19T16:53:16.322Z,2.35
2023-05-19T16:55:44.157Z,2.15
2023-05-19T16:58:11.778Z,2.62
2023-05-19T17:00:39.437Z,2.80
2023-05-19T17:03:07.421Z,2.97
2023-05-19T17:05:36.243Z,2.85
2023-05-19T17:08:03.829Z,2.80
2023-05-19T17:10:31.941Z,2.70
2023-05-19T17:12:59.564Z,2.50
2023-05-19T17:15:27.052Z,2.53
2023-05-19T17:17:54.886Z,2.83
2023-05-19T17:20:22.474Z,2.30
2023-05-19T17:22:49.961Z,2.30
2023-05-19T17:25:17.908Z,2.70
2023-05-19T17:27:45.498Z,2.60
2023-05-19T17:30:13.643Z,3.00
2023-05-19T17:32:41.469Z,3.00
2023-05-19T17:35:09.189Z,2.92
2023-05-19T17:37:37.223Z,2.28
2023-05-19T17:40:05.658Z,2.60
2023-05-19T17:42:33.283Z,2.80
2023-05-19T17:45:00.968Z,3.25
2023-05-19T17:47:28.972Z,3.35
2023-05-19T17:49:56.628Z,2.83
2023-05-19T17:52:25.773Z,2.70
2023-05-19T17:54:54.074Z,2.87
2023-05-19T17:57:25.375Z,2.37
2023-05-19T17:59:53.211Z,2.75
2023-05-19T18:02:21.318Z,2.80
2023-05-19T18:04:49.588Z,3.17
2023-05-19T18:07:18.159Z,3.25
2023-05-19T18:09:46.518Z,2.97
2023-05-19T18:12:14.396Z,3.20
2023-05-19T18:14:42.232Z,3.12
2023-05-19T18:17:09.713Z,2.97
2023-05-19T18:19:37.478Z,3.00
2023-05-19T18:22:05.162Z,2.75
2023-05-19T18:24:32.758Z,3.15
2023-05-19T18:27:00.689Z,3.03
2023-05-19T18:29:28.232Z,3.53
2023-05-19T18:31:55.844Z,2.92
2023-05-19T18:34:23.638Z,3.03
2023-05-19T18:36:51.250Z,3.17
2023-05-19T18:39:18.778Z,3.28
2023-05-19T18:41:47.477Z,3.50
2023-05-19T18:44:15.240Z,3.50
2023-05-19T18:46:42.742Z,3.45
2023-05-19T18:49:11.846Z,3.47
2023-05-19T18:51:39.785Z,3.40
2023-05-19T18:54:07.712Z,3.57
2023-05-19T18:56:35.760Z,3.37
2023-05-19T18:59:03.433Z,3.40
2023-05-19T19:01:31.127Z,2.83
2023-05-19T19:03:59.713Z,2.87
2023-05-19T19:06:27.572Z,3.00
2023-05-19T19:08:55.134Z,3.12
2023-05-19T19:11:22.991Z,3.10
2023-05-19T19:13:51.392Z,2.97
2023-05-19T19:16:19.164Z,3.10
2023-05-19T19:18:47.196Z,3.20
2023-05-19T19:21:14.943Z,3.20
2023-05-19T19:23:42.524Z,3.40
2023-05-19T19:26:10.479Z,2.87
2023-05-19T19:28:38.069Z,2.83
2023-05-19T19:31:05.686Z,3.07
2023-05-19T19:33:33.546Z,3.15
2023-05-19T19:36:01.488Z,2.37
2023-05-19T19:38:29.099Z,2.78
2023-05-19T19:40:56.986Z,3.30
2023-05-19T19:43:24.668Z,2.77
2023-05-19T19:46:02.369Z,3.30
2023-05-19T19:48:30.485Z,2.45
2023-05-19T19:50:58.280Z,3.25
2023-05-19T19:53:26.023Z,3.40
2023-05-19T19:56:01.352Z,3.50
2023-05-19T19:58:29.077Z,3.28
2023-05-19T20:00:58.215Z,3.37
2023-05-19T20:03:26.907Z,3.12
2023-05-19T20:05:55.829Z,3.35
2023-05-19T20:08:24.590Z,3.67
2023-05-19T20:10:52.691Z,2.95
2023-05-19T20:13:23.247Z,2.90
2023-05-19T20:15:51.202Z,3.40
2023-05-19T20:18:19.266Z,3.20
2023-05-19T20:20:46.849Z,3.77
2023-05-19T20:23:16.243Z,3.62
2023-05-19T20:25:58.873Z,3.20
2023-05-19T20:28:31.671Z,3.45
2023-05-19T20:30:59.587Z,3.33
2023-05-19T20:33:27.129Z,3.40
2023-05-19T20:35:54.702Z,3.97
2023-05-19T20:38:22.474Z,4.40
2023-05-19T20:40:50.114Z,4.10
2023-05-19T20:43:17.653Z,4.80
2023-05-19T20:45:45.906Z,4.37
2023-05-19T20:48:15.630Z,4.22
2023-05-19T20:50:43.392Z,4.37
2023-05-19T20:53:11.407Z,4.28
2023-05-19T20:55:39.293Z,4.55
2023-05-19T20:58:06.942Z,4.50
2023-05-19T21:00:34.914Z,4.12
2023-05-19T21:03:02.796Z,4.07
2023-05-19T21:05:30.539Z,4.95
2023-05-19T21:07:58.343Z,4.57
2023-05-19T21:10:25.947Z,4.60
2023-05-19T21:12:53.561Z,4.40
2023-05-19T21:15:21.411Z,4.65
2023-05-19T21:17:49.056Z,4.03
2023-05-19T21:20:16.661Z,4.20
2023-05-19T21:22:44.536Z,4.57
2023-05-19T21:25:12.270Z,5.22
2023-05-19T21:27:40.582Z,3.87
2023-05-19T21:30:09.784Z,4.05
2023-05-19T21:32:37.410Z,3.90
2023-05-19T21:35:06.211Z,4.17
2023-05-19T21:37:34.086Z,3.97
2023-05-19T21:40:01.786Z,4.30
2023-05-19T21:42:29.284Z,3.87
2023-05-19T21:44:57.209Z,4.30
2023-05-19T21:47:25.154Z,4.27
2023-05-19T21:49:52.739Z,4.15
2023-05-19T21:52:20.547Z,3.85
2023-05-19T21:54:48.084Z,4.43
2023-05-19T21:57:15.654Z,4.12
2023-05-19T21:59:44.941Z,4.30
2023-05-19T22:02:12.715Z,4.03
2023-05-19T22:04:41.821Z,4.28
2023-05-19T22:07:09.357Z,4.78
2023-05-19T22:09:38.008Z,4.30
2023-05-19T22:12:06.548Z,3.90
2023-05-19T22:14:34.146Z,4.22
2023-05-19T22:17:01.731Z,4.20
2023-05-19T22:19:29.763Z,4.12
2023-05-19T22:22:09.807Z,4.40
2023-05-19T22:24:41.759Z,3.77
2023-05-19T22:27:09.421Z,4.15
2023-05-19T22:29:38.775Z,4.50
2023-05-19T22:32:09.318Z,4.62
2023-05-19T22:34:36.919Z,4.45
2023-05-19T22:37:05.388Z,3.60
2023-05-19T22:39:33.139Z,4.05
2023-05-19T22:42:01.327Z,4.72
2023-05-19T22:44:28.815Z,3.37
2023-05-19T22:46:56.675Z,4.15
2023-05-19T22:49:24.325Z,4.30
2023-05-19T22:51:52.085Z,4.22
2023-05-19T22:54:19.983Z,3.83
2023-05-19T22:56:49.022Z,4.35
2023-05-19T22:59:18.054Z,4.20
2023-05-19T23:01:46.837Z,4.20
2023-05-19T23:04:15.284Z,4.07
2023-05-19T23:06:42.919Z,4.18
2023-05-19T23:09:10.653Z,3.83
2023-05-19T23:11:38.161Z,4.62
2023-05-19T23:14:05.717Z,4.50
2023-05-19T23:16:33.610Z,4.55
2023-05-19T23:19:01.290Z,4.90
2023-05-19T23:21:30.325Z,4.53
2023-05-19T23:23:58.358Z,4.30
2023-05-19T23:26:26.929Z,4.10
2023-05-19T23:28:54.556Z,4.47
2023-05-19T23:31:22.754Z,4.12
2023-05-19T23:33:50.476Z,4.18
2023-05-19T23:36:19.235Z,4.07
2023-05-19T23:38:47.066Z,4.43
2023-05-19T23:41:14.860Z,4.80
2023-05-19T23:43:42.382Z,4.45
2023-05-19T23:46:10.258Z,4.80
2023-05-19T23:48:37.840Z,4.40
2023-05-19T23:51:05.601Z,4.47
2023-05-19T23:53:33.449Z,4.87
2023-05-19T23:56:01.143Z,4.60
2023-05-19T23:58:28.729Z,5.30
